sensor_id;sensor_type;location;lat;lon;timestamp;pressure;altitude;pressure_sealevel;temperature;humidity
66857;BME280;53766;50.280;19.160;2023-08-30T00:00:35;97441.19;;;20.23;67.96
66857;BME280;53766;50.280;19.160;2023-08-30T00:03:23;97434.72;;;20.19;67.66
66857;BME280;53766;50.280;19.160;2023-08-30T00:05:50;97433.06;;;20.18;67.82
66857;BME280;53766;50.280;19.160;2023-08-30T00:08:18;97433.56;;;20.14;67.66
66857;BME280;53766;50.280;19.160;2023-08-30T00:10:48;97421.25;;;20.13;67.78
66857;BME280;53766;50.280;19.160;2023-08-30T00:13:16;97422.31;;;20.12;67.72
66857;BME280;53766;50.280;19.160;2023-08-30T00:15:43;97423.84;;;20.08;67.72
66857;BME280;53766;50.280;19.160;2023-08-30T00:18:10;97412.00;;;20.04;67.74
66857;BME280;53766;50.280;19.160;2023-08-30T00:20:38;97414.19;;;20.07;67.78
66857;BME280;53766;50.280;19.160;2023-08-30T00:23:06;97414.19;;;20.07;67.69
66857;BME280;53766;50.280;19.160;2023-08-30T00:25:33;97409.41;;;20.09;67.54
66857;BME280;53766;50.280;19.160;2023-08-30T00:28:01;97405.13;;;20.08;67.75
66857;BME280;53766;50.280;19.160;2023-08-30T00:30:28;97407.78;;;20.08;67.57
66857;BME280;53766;50.280;19.160;2023-08-30T00:32:56;97397.56;;;20.05;67.72
66857;BME280;53766;50.280;19.160;2023-08-30T00:35:23;97404.53;;;20.06;67.67
66857;BME280;53766;50.280;19.160;2023-08-30T00:37:51;97409.66;;;20.08;67.60
66857;BME280;53766;50.280;19.160;2023-08-30T00:40:23;97404.06;;;20.09;67.53
66857;BME280;53766;50.280;19.160;2023-08-30T00:42:51;97398.13;;;20.07;67.59
66857;BME280;53766;50.280;19.160;2023-08-30T00:45:18;97397.56;;;20.05;67.59
66857;BME280;53766;50.280;19.160;2023-08-30T00:47:46;97394.31;;;20.03;67.49
66857;BME280;53766;50.280;19.160;2023-08-30T00:50:14;97395.38;;;20.02;67.43
66857;BME280;53766;50.280;19.160;2023-08-30T00:52:42;97392.38;;;19.99;67.79
66857;BME280;53766;50.280;19.160;2023-08-30T00:55:09;97380.66;;;20.00;67.68
66857;BME280;53766;50.280;19.160;2023-08-30T00:57:37;97379.34;;;20.02;67.57
66857;BME280;53766;50.280;19.160;2023-08-30T01:00:05;97374.00;;;20.02;67.54
66857;BME280;53766;50.280;19.160;2023-08-30T01:02:34;97375.88;;;20.02;67.41
66857;BME280;53766;50.280;19.160;2023-08-30T01:05:02;97374.22;;;20.01;67.54
66857;BME280;53766;50.280;19.160;2023-08-30T01:07:31;97361.69;;;20.01;67.45
66857;BME280;53766;50.280;19.160;2023-08-30T01:09:58;97370.75;;;20.00;67.47
66857;BME280;53766;50.280;19.160;2023-08-30T01:12:36;97387.72;;;20.06;67.35
66857;BME280;53766;50.280;19.160;2023-08-30T01:15:18;97391.91;;;20.02;67.63
66857;BME280;53766;50.280;19.160;2023-08-30T01:17:48;97378.28;;;20.03;67.54
66857;BME280;53766;50.280;19.160;2023-08-30T01:20:17;97378.53;;;20.02;67.56
66857;BME280;53766;50.280;19.160;2023-08-30T01:22:57;97379.56;;;20.01;67.54
66857;BME280;53766;50.280;19.160;2023-08-30T01:25:53;97384.19;;;20.05;67.41
66857;BME280;53766;50.280;19.160;2023-08-30T01:28:21;97388.50;;;20.06;67.59
66857;BME280;53766;50.280;19.160;2023-08-30T01:30:50;97390.69;;;20.09;67.40
66857;BME280;53766;50.280;19.160;2023-08-30T01:33:22;97398.25;;;20.12;67.51
66857;BME280;53766;50.280;19.160;2023-08-30T01:35:50;97399.63;;;20.15;67.28
66857;BME280;53766;50.280;19.160;2023-08-30T01:38:19;97400.44;;;20.16;67.22
66857;BME280;53766;50.280;19.160;2023-08-30T01:40:47;97403.34;;;20.14;67.31
66857;BME280;53766;50.280;19.160;2023-08-30T01:43:16;97394.28;;;20.15;67.22
66857;BME280;53766;50.280;19.160;2023-08-30T01:45:44;97394.50;;;20.13;67.39
66857;BME280;53766;50.280;19.160;2023-08-30T01:48:14;97392.41;;;20.16;67.15
66857;BME280;53766;50.280;19.160;2023-08-30T01:50:43;97382.28;;;20.18;67.13
66857;BME280;53766;50.280;19.160;2023-08-30T01:53:12;97375.56;;;20.15;67.19
66857;BME280;53766;50.280;19.160;2023-08-30T01:55:40;97369.88;;;20.11;67.38
66857;BME280;53766;50.280;19.160;2023-08-30T01:58:09;97371.97;;;20.09;67.45
66857;BME280;53766;50.280;19.160;2023-08-30T02:00:38;97366.63;;;20.09;67.36
66857;BME280;53766;50.280;19.160;2023-08-30T02:03:10;97367.94;;;20.07;67.34
66857;BME280;53766;50.280;19.160;2023-08-30T02:12:04;97379.69;;;20.06;67.20
66857;BME280;53766;50.280;19.160;2023-08-30T02:14:35;97383.97;;;20.07;67.21
66857;BME280;53766;50.280;19.160;2023-08-30T02:17:04;97391.75;;;20.08;67.29
66857;BME280;53766;50.280;19.160;2023-08-30T02:19:33;97393.38;;;20.09;67.10
66857;BME280;53766;50.280;19.160;2023-08-30T02:22:01;97396.59;;;20.11;66.99
66857;BME280;53766;50.280;19.160;2023-08-30T02:24:28;97395.31;;;20.14;67.21
66857;BME280;53766;50.280;19.160;2023-08-30T02:26:56;97393.22;;;20.16;67.05
66857;BME280;53766;50.280;19.160;2023-08-30T02:29:23;97397.75;;;20.16;67.18
66857;BME280;53766;50.280;19.160;2023-08-30T02:31:51;97393.47;;;20.14;67.16
66857;BME280;53766;50.280;19.160;2023-08-30T02:34:18;97396.16;;;20.14;66.91
66857;BME280;53766;50.280;19.160;2023-08-30T02:36:46;97392.91;;;20.12;67.11
66857;BME280;53766;50.280;19.160;2023-08-30T02:39:14;97388.59;;;20.11;67.20
66857;BME280;53766;50.280;19.160;2023-08-30T02:41:42;97386.97;;;20.10;66.99
66857;BME280;53766;50.280;19.160;2023-08-30T02:44:11;97376.19;;;20.05;66.93
66857;BME280;53766;50.280;19.160;2023-08-30T02:46:39;97368.16;;;20.05;67.07
66857;BME280;53766;50.280;19.160;2023-08-30T02:49:07;97378.28;;;20.03;67.02
66857;BME280;53766;50.280;19.160;2023-08-30T02:51:36;97379.13;;;20.04;67.01
66857;BME280;53766;50.280;19.160;2023-08-30T02:54:03;97376.34;;;19.99;66.93
66857;BME280;53766;50.280;19.160;2023-08-30T02:56:31;97366.94;;;19.96;67.11
66857;BME280;53766;50.280;19.160;2023-08-30T02:58:59;97360.22;;;19.93;67.02
66857;BME280;53766;50.280;19.160;2023-08-30T03:01:26;97356.75;;;19.93;67.15
66857;BME280;53766;50.280;19.160;2023-08-30T03:03:54;97357.53;;;19.93;67.02
66857;BME280;53766;50.280;19.160;2023-08-30T03:06:21;97356.75;;;19.93;67.17
66857;BME280;53766;50.280;19.160;2023-08-30T03:08:49;97362.66;;;19.95;66.89
66857;BME280;53766;50.280;19.160;2023-08-30T03:11:16;97361.59;;;19.96;66.98
66857;BME280;53766;50.280;19.160;2023-08-30T03:13:44;97363.69;;;19.94;67.07
66857;BME280;53766;50.280;19.160;2023-08-30T03:16:16;97358.28;;;19.89;66.92
66857;BME280;53766;50.280;19.160;2023-08-30T03:18:44;97358.72;;;19.86;67.10
66857;BME280;53766;50.280;19.160;2023-08-30T03:21:11;97360.50;;;19.80;67.05
66857;BME280;53766;50.280;19.160;2023-08-30T03:23:40;97370.72;;;19.83;67.14
66857;BME280;53766;50.280;19.160;2023-08-30T03:26:12;97376.88;;;19.84;67.17
66857;BME280;53766;50.280;19.160;2023-08-30T03:28:41;97375.81;;;19.85;67.12
66857;BME280;53766;50.280;19.160;2023-08-30T03:31:17;97375.81;;;19.85;67.09
66857;BME280;53766;50.280;19.160;2023-08-30T03:33:45;97378.00;;;19.88;66.86
66857;BME280;53766;50.280;19.160;2023-08-30T03:36:14;97377.44;;;19.86;66.89
66857;BME280;53766;50.280;19.160;2023-08-30T03:38:42;97383.84;;;19.85;66.81
66857;BME280;53766;50.280;19.160;2023-08-30T03:41:10;97377.91;;;19.83;66.74
66857;BME280;53766;50.280;19.160;2023-08-30T03:43:39;97382.13;;;19.79;66.83
66857;BME280;53766;50.280;19.160;2023-08-30T03:46:06;97378.41;;;19.80;66.81
66857;BME280;53766;50.280;19.160;2023-08-30T03:48:34;97380.16;;;19.74;66.70
66857;BME280;53766;50.280;19.160;2023-08-30T03:51:01;97379.81;;;19.70;66.77
66857;BME280;53766;50.280;19.160;2023-08-30T03:53:29;97384.13;;;19.71;66.81
66857;BME280;53766;50.280;19.160;2023-08-30T03:55:57;97384.13;;;19.71;66.77
66857;BME280;53766;50.280;19.160;2023-08-30T03:58:25;97391.75;;;19.68;66.87
66857;BME280;53766;50.280;19.160;2023-08-30T04:00:52;97390.50;;;19.70;66.84
66857;BME280;53766;50.280;19.160;2023-08-30T04:03:20;97389.91;;;19.68;67.15
66857;BME280;53766;50.280;19.160;2023-08-30T04:05:48;97385.63;;;19.67;66.86
66857;BME280;53766;50.280;19.160;2023-08-30T04:08:15;97385.16;;;19.70;66.86
66857;BME280;53766;50.280;19.160;2023-08-30T04:10:42;97393.19;;;19.70;66.88
66857;BME280;53766;50.280;19.160;2023-08-30T04:13:11;97389.69;;;19.70;66.84
66857;BME280;53766;50.280;19.160;2023-08-30T04:15:39;97390.63;;;19.76;66.82
66857;BME280;53766;50.280;19.160;2023-08-30T04:18:06;97394.44;;;19.80;66.71
66857;BME280;53766;50.280;19.160;2023-08-30T04:20:35;97398.63;;;19.76;66.82
66857;BME280;53766;50.280;19.160;2023-08-30T04:23:02;97400.25;;;19.77;66.82
66857;BME280;53766;50.280;19.160;2023-08-30T04:25:30;97397.34;;;19.78;66.82
66857;BME280;53766;50.280;19.160;2023-08-30T04:27:58;97403.41;;;19.73;66.78
66857;BME280;53766;50.280;19.160;2023-08-30T04:30:25;97396.31;;;19.67;66.88
66857;BME280;53766;50.280;19.160;2023-08-30T04:32:53;97395.16;;;19.63;66.97
66857;BME280;53766;50.280;19.160;2023-08-30T04:35:20;97394.69;;;19.66;66.86
66857;BME280;53766;50.280;19.160;2023-08-30T04:37:48;97388.53;;;19.66;67.06
66857;BME280;53766;50.280;19.160;2023-08-30T04:40:15;97376.22;;;19.65;66.72
66857;BME280;53766;50.280;19.160;2023-08-30T04:42:43;97378.66;;;19.66;66.73
66857;BME280;53766;50.280;19.160;2023-08-30T04:45:10;97390.03;;;19.73;66.60
66857;BME280;53766;50.280;19.160;2023-08-30T04:47:38;97394.91;;;19.77;66.74
66857;BME280;53766;50.280;19.160;2023-08-30T04:50:06;97393.28;;;19.76;66.68
66857;BME280;53766;50.280;19.160;2023-08-30T04:52:34;97388.66;;;19.71;66.59
66857;BME280;53766;50.280;19.160;2023-08-30T04:55:01;97378.22;;;19.69;66.73
66857;BME280;53766;50.280;19.160;2023-08-30T04:57:29;97395.84;;;19.70;66.81
66857;BME280;53766;50.280;19.160;2023-08-30T04:59:57;97388.91;;;19.69;66.66
66857;BME280;53766;50.280;19.160;2023-08-30T05:02:24;97382.72;;;19.69;66.62
66857;BME280;53766;50.280;19.160;2023-08-30T05:04:52;97379.69;;;19.65;66.54
66857;BME280;53766;50.280;19.160;2023-08-30T05:07:20;97375.88;;;19.61;66.54
66857;BME280;53766;50.280;19.160;2023-08-30T05:09:47;97376.38;;;19.58;66.73
66857;BME280;53766;50.280;19.160;2023-08-30T05:12:15;97381.34;;;19.55;66.75
66857;BME280;53766;50.280;19.160;2023-08-30T05:14:42;97383.81;;;19.56;66.87
66857;BME280;53766;50.280;19.160;2023-08-30T05:17:10;97388.34;;;19.56;66.83
66857;BME280;53766;50.280;19.160;2023-08-30T05:19:37;97380.06;;;19.57;66.74
66857;BME280;53766;50.280;19.160;2023-08-30T05:22:05;97374.72;;;19.57;66.94
66857;BME280;53766;50.280;19.160;2023-08-30T05:24:32;97381.72;;;19.58;66.67
66857;BME280;53766;50.280;19.160;2023-08-30T05:27:01;97387.13;;;19.63;66.69
66857;BME280;53766;50.280;19.160;2023-08-30T05:29:29;97384.47;;;19.63;66.69
66857;BME280;53766;50.280;19.160;2023-08-30T05:31:57;97386.56;;;19.61;66.81
66857;BME280;53766;50.280;19.160;2023-08-30T05:34:24;97386.09;;;19.64;66.70
66857;BME280;53766;50.280;19.160;2023-08-30T05:36:54;97387.72;;;19.65;66.61
66857;BME280;53766;50.280;19.160;2023-08-30T05:39:21;97384.25;;;19.65;66.68
66857;BME280;53766;50.280;19.160;2023-08-30T05:41:49;97387.72;;;19.65;66.67
66857;BME280;53766;50.280;19.160;2023-08-30T05:44:16;97387.72;;;19.65;66.37
66857;BME280;53766;50.280;19.160;2023-08-30T05:46:44;97389.59;;;19.65;66.39
66857;BME280;53766;50.280;19.160;2023-08-30T05:49:11;97400.84;;;19.67;66.25
66857;BME280;53766;50.280;19.160;2023-08-30T05:51:39;97402.13;;;19.64;66.36
66857;BME280;53766;50.280;19.160;2023-08-30T05:54:06;97402.13;;;19.64;66.35
66857;BME280;53766;50.280;19.160;2023-08-30T05:56:34;97412.81;;;19.64;66.35
66857;BME280;53766;50.280;19.160;2023-08-30T05:59:01;97408.72;;;19.62;66.35
66857;BME280;53766;50.280;19.160;2023-08-30T06:01:29;97417.47;;;19.57;66.38
66857;BME280;53766;50.280;19.160;2023-08-30T06:03:56;97420.03;;;19.52;66.32
66857;BME280;53766;50.280;19.160;2023-08-30T06:06:24;97423.19;;;19.49;66.47
66857;BME280;53766;50.280;19.160;2023-08-30T06:08:51;97426.97;;;19.53;66.33
66857;BME280;53766;50.280;19.160;2023-08-30T06:11:19;97421.41;;;19.55;66.50
66857;BME280;53766;50.280;19.160;2023-08-30T06:13:46;97424.88;;;19.55;66.48
66857;BME280;53766;50.280;19.160;2023-08-30T06:16:14;97429.06;;;19.51;66.41
66857;BME280;53766;50.280;19.160;2023-08-30T06:18:41;97429.06;;;19.51;66.43
66857;BME280;53766;50.280;19.160;2023-08-30T06:21:09;97430.72;;;19.52;66.43
66857;BME280;53766;50.280;19.160;2023-08-30T06:23:38;97433.97;;;19.54;66.24
66857;BME280;53766;50.280;19.160;2023-08-30T06:26:05;97430.22;;;19.55;66.20
66857;BME280;53766;50.280;19.160;2023-08-30T06:28:33;97428.28;;;19.50;66.45
66857;BME280;53766;50.280;19.160;2023-08-30T06:31:00;97428.53;;;19.49;66.26
66857;BME280;53766;50.280;19.160;2023-08-30T06:33:28;97421.47;;;19.43;66.59
66857;BME280;53766;50.280;19.160;2023-08-30T06:35:55;97425.16;;;19.42;66.67
66857;BME280;53766;50.280;19.160;2023-08-30T06:38:23;97424.13;;;19.43;66.82
66857;BME280;53766;50.280;19.160;2023-08-30T06:40:51;97425.16;;;19.42;66.69
66857;BME280;53766;50.280;19.160;2023-08-30T06:43:18;97428.88;;;19.41;66.75
66857;BME280;53766;50.280;19.160;2023-08-30T06:45:45;97425.88;;;19.37;66.87
66857;BME280;53766;50.280;19.160;2023-08-30T06:48:13;97427.72;;;19.37;66.49
66857;BME280;53766;50.280;19.160;2023-08-30T06:50:41;97429.81;;;19.35;66.57
66857;BME280;53766;50.280;19.160;2023-08-30T06:53:08;97436.78;;;19.36;66.62
66857;BME280;53766;50.280;19.160;2023-08-30T06:55:36;97428.88;;;19.41;66.69
66857;BME280;53766;50.280;19.160;2023-08-30T06:58:05;97430.28;;;19.43;66.71
66857;BME280;53766;50.280;19.160;2023-08-30T07:00:32;97433.88;;;19.49;66.50
66857;BME280;53766;50.280;19.160;2023-08-30T07:03:00;97440.25;;;19.48;66.47
66857;BME280;53766;50.280;19.160;2023-08-30T07:05:28;97443.97;;;19.47;66.51
66857;BME280;53766;50.280;19.160;2023-08-30T07:07:55;97446.88;;;19.45;66.44
66857;BME280;53766;50.280;19.160;2023-08-30T07:10:23;97450.25;;;19.41;66.57
66857;BME280;53766;50.280;19.160;2023-08-30T07:12:50;97459.28;;;19.40;66.32
66857;BME280;53766;50.280;19.160;2023-08-30T07:15:18;97463.59;;;19.41;66.57
66857;BME280;53766;50.280;19.160;2023-08-30T07:17:45;97461.38;;;19.38;66.53
66857;BME280;53766;50.280;19.160;2023-08-30T07:20:20;97463.81;;;19.39;66.47
66857;BME280;53766;50.280;19.160;2023-08-30T07:22:48;97459.28;;;19.40;66.66
66857;BME280;53766;50.280;19.160;2023-08-30T07:25:15;97469.50;;;19.43;66.57
66857;BME280;53766;50.280;19.160;2023-08-30T07:27:43;97458.84;;;19.43;66.50
66857;BME280;53766;50.280;19.160;2023-08-30T07:30:13;97458.94;;;19.48;66.56
66857;BME280;53766;50.280;19.160;2023-08-30T07:32:40;97460.81;;;19.47;66.68
66857;BME280;53766;50.280;19.160;2023-08-30T07:35:08;97468.22;;;19.45;66.50
66857;BME280;53766;50.280;19.160;2023-08-30T07:37:35;97462.53;;;19.42;66.54
66857;BME280;53766;50.280;19.160;2023-08-30T07:40:03;97461.16;;;19.39;66.61
66857;BME280;53766;50.280;19.160;2023-08-30T07:42:32;97458.13;;;19.36;66.58
66857;BME280;53766;50.280;19.160;2023-08-30T07:44:59;97465.22;;;19.42;66.38
66857;BME280;53766;50.280;19.160;2023-08-30T07:47:27;97456.75;;;19.45;66.55
66857;BME280;53766;50.280;19.160;2023-08-30T07:49:54;97465.34;;;19.47;66.37
66857;BME280;53766;50.280;19.160;2023-08-30T07:52:22;97473.34;;;19.47;66.47
66857;BME280;53766;50.280;19.160;2023-08-30T07:55:09;97475.44;;;19.45;66.33
66857;BME280;53766;50.280;19.160;2023-08-30T07:57:36;97475.44;;;19.45;66.19
66857;BME280;53766;50.280;19.160;2023-08-30T08:00:04;97479.28;;;19.49;66.30
66857;BME280;53766;50.280;19.160;2023-08-30T08:02:32;97475.06;;;19.53;66.43
66857;BME280;53766;50.280;19.160;2023-08-30T08:05:00;97481.34;;;19.59;66.28
66857;BME280;53766;50.280;19.160;2023-08-30T08:07:27;97486.44;;;19.60;66.14
66857;BME280;53766;50.280;19.160;2023-08-30T08:09:56;97489.56;;;19.57;65.98
66857;BME280;53766;50.280;19.160;2023-08-30T08:12:25;97489.00;;;19.55;66.26
66857;BME280;53766;50.280;19.160;2023-08-30T08:14:53;97493.88;;;19.58;65.99
66857;BME280;53766;50.280;19.160;2023-08-30T08:17:20;97492.59;;;19.61;65.95
66857;BME280;53766;50.280;19.160;2023-08-30T08:19:48;97493.97;;;19.63;66.02
66857;BME280;53766;50.280;19.160;2023-08-30T08:22:15;97491.31;;;19.63;65.95
66857;BME280;53766;50.280;19.160;2023-08-30T08:24:43;97488.06;;;19.61;65.81
66857;BME280;53766;50.280;19.160;2023-08-30T08:27:13;97486.31;;;19.55;65.63
66857;BME280;53766;50.280;19.160;2023-08-30T08:29:41;97491.44;;;19.57;65.78
66857;BME280;53766;50.280;19.160;2023-08-30T08:32:09;97495.38;;;19.54;65.76
66857;BME280;53766;50.280;19.160;2023-08-30T08:34:36;97498.50;;;19.51;65.87
66857;BME280;53766;50.280;19.160;2023-08-30T08:37:04;97498.41;;;19.46;65.36
66857;BME280;53766;50.280;19.160;2023-08-30T08:39:31;97510.38;;;19.43;65.51
66857;BME280;53766;50.280;19.160;2023-08-30T08:41:59;97503.28;;;19.37;65.63
66857;BME280;53766;50.280;19.160;2023-08-30T08:44:31;97506.66;;;19.32;65.53
66857;BME280;53766;50.280;19.160;2023-08-30T08:46:59;97514.56;;;19.27;65.49
66857;BME280;53766;50.280;19.160;2023-08-30T08:49:27;97516.88;;;19.24;65.41
66857;BME280;53766;50.280;19.160;2023-08-30T08:51:56;97517.94;;;19.23;65.56
66857;BME280;53766;50.280;19.160;2023-08-30T08:54:25;97519.31;;;19.25;65.64
66857;BME280;53766;50.280;19.160;2023-08-30T08:56:54;97518.75;;;19.23;65.59
66857;BME280;53766;50.280;19.160;2023-08-30T08:59:23;97520.59;;;19.23;65.38
66857;BME280;53766;50.280;19.160;2023-08-30T09:01:51;97526.97;;;19.22;65.54
66857;BME280;53766;50.280;19.160;2023-08-30T09:04:20;97521.84;;;19.20;65.33
66857;BME280;53766;50.280;19.160;2023-08-30T09:06:47;97521.63;;;19.22;65.75
66857;BME280;53766;50.280;19.160;2023-08-30T09:09:16;97519.53;;;19.24;65.47
66857;BME280;53766;50.280;19.160;2023-08-30T09:11:43;97522.00;;;19.25;65.69
66857;BME280;53766;50.280;19.160;2023-08-30T09:14:18;97528.34;;;19.24;65.53
66857;BME280;53766;50.280;19.160;2023-08-30T09:17:00;97526.97;;;19.22;65.44
66857;BME280;53766;50.280;19.160;2023-08-30T09:19:29;97534.41;;;19.20;65.11
66857;BME280;53766;50.280;19.160;2023-08-30T09:21:58;97531.94;;;19.18;65.42
66857;BME280;53766;50.280;19.160;2023-08-30T09:24:37;97526.59;;;19.18;65.48
66857;BME280;53766;50.280;19.160;2023-08-30T09:27:06;97522.91;;;19.19;65.48
66857;BME280;53766;50.280;19.160;2023-08-30T09:29:34;97525.81;;;19.18;65.27
66857;BME280;53766;50.280;19.160;2023-08-30T09:32:01;97522.31;;;19.17;65.23
66857;BME280;53766;50.280;19.160;2023-08-30T09:34:29;97519.66;;;19.17;65.38
66857;BME280;53766;50.280;19.160;2023-08-30T09:36:56;97521.03;;;19.20;65.50
66857;BME280;53766;50.280;19.160;2023-08-30T09:39:26;97515.94;;;19.18;65.26
66857;BME280;53766;50.280;19.160;2023-08-30T09:41:54;97522.91;;;19.19;65.46
66857;BME280;53766;50.280;19.160;2023-08-30T09:44:22;97520.03;;;19.21;65.54
66857;BME280;53766;50.280;19.160;2023-08-30T09:46:53;97521.41;;;19.23;65.66
66857;BME280;53766;50.280;19.160;2023-08-30T09:49:22;97518.25;;;19.26;65.63
66857;BME280;53766;50.280;19.160;2023-08-30T09:51:52;97523.16;;;19.29;65.58
66857;BME280;53766;50.280;19.160;2023-08-30T09:54:40;97516.19;;;19.28;65.25
66857;BME280;53766;50.280;19.160;2023-08-30T09:57:10;97523.59;;;19.26;65.13
66857;BME280;53766;50.280;19.160;2023-08-30T09:59:39;97525.25;;;19.27;65.35
66857;BME280;53766;50.280;19.160;2023-08-30T10:02:08;97522.56;;;19.27;65.21
66857;BME280;53766;50.280;19.160;2023-08-30T10:04:38;97520.94;;;19.26;65.21
66857;BME280;53766;50.280;19.160;2023-08-30T10:07:09;97523.38;;;19.28;65.11
66857;BME280;53766;50.280;19.160;2023-08-30T10:09:41;97528.50;;;19.29;64.89
66857;BME280;53766;50.280;19.160;2023-08-30T10:12:29;97533.84;;;19.29;64.99
66857;BME280;53766;50.280;19.160;2023-08-30T10:14:58;97528.50;;;19.29;64.89
66857;BME280;53766;50.280;19.160;2023-08-30T10:17:28;97524.75;;;19.30;64.95
66857;BME280;53766;50.280;19.160;2023-08-30T10:19:59;97519.66;;;19.29;64.66
66857;BME280;53766;50.280;19.160;2023-08-30T10:22:32;97520.94;;;19.26;64.57
66857;BME280;53766;50.280;19.160;2023-08-30T10:25:29;97524.41;;;19.27;64.73
66857;BME280;53766;50.280;19.160;2023-08-30T10:27:57;97518.25;;;19.26;64.73
66857;BME280;53766;50.280;19.160;2023-08-30T10:30:26;97508.38;;;19.27;64.42
66857;BME280;53766;50.280;19.160;2023-08-30T10:32:53;97519.44;;;19.30;64.73
66857;BME280;53766;50.280;19.160;2023-08-30T10:35:21;97509.56;;;19.31;64.77
66857;BME280;53766;50.280;19.160;2023-08-30T10:37:56;97512.81;;;19.33;64.84
66857;BME280;53766;50.280;19.160;2023-08-30T10:40:23;97503.78;;;19.34;64.74
66857;BME280;53766;50.280;19.160;2023-08-30T10:43:01;97512.00;;;19.32;64.28
66857;BME280;53766;50.280;19.160;2023-08-30T10:45:29;97518.50;;;19.37;64.44
66857;BME280;53766;50.280;19.160;2023-08-30T10:47:58;97518.50;;;19.37;64.31
66857;BME280;53766;50.280;19.160;2023-08-30T10:50:31;97516.06;;;19.35;64.43
66857;BME280;53766;50.280;19.160;2023-08-30T10:52:59;97520.59;;;19.35;64.20
66857;BME280;53766;50.280;19.160;2023-08-30T10:55:27;97523.84;;;19.37;64.05
66857;BME280;53766;50.280;19.160;2023-08-30T10:58:02;97518.50;;;19.37;64.35
66857;BME280;53766;50.280;19.160;2023-08-30T11:00:32;97523.38;;;19.40;64.36
66857;BME280;53766;50.280;19.160;2023-08-30T11:02:59;97519.66;;;19.41;64.26
66857;BME280;53766;50.280;19.160;2023-08-30T11:05:29;97519.66;;;19.41;64.37
66857;BME280;53766;50.280;19.160;2023-08-30T11:07:57;97516.19;;;19.40;64.09
66857;BME280;53766;50.280;19.160;2023-08-30T11:10:24;97522.56;;;19.39;63.80
66857;BME280;53766;50.280;19.160;2023-08-30T11:12:52;97518.50;;;19.37;63.62
66857;BME280;53766;50.280;19.160;2023-08-30T11:15:20;97515.25;;;19.35;63.69
66857;BME280;53766;50.280;19.160;2023-08-30T11:17:49;97510.72;;;19.35;63.81
66857;BME280;53766;50.280;19.160;2023-08-30T11:20:17;97513.16;;;19.37;63.99
66857;BME280;53766;50.280;19.160;2023-08-30T11:22:47;97513.16;;;19.37;63.98
66857;BME280;53766;50.280;19.160;2023-08-30T11:25:16;97509.91;;;19.35;63.92
66857;BME280;53766;50.280;19.160;2023-08-30T11:27:44;97514.78;;;19.38;63.93
66857;BME280;53766;50.280;19.160;2023-08-30T11:30:13;97507.81;;;19.37;64.25
66857;BME280;53766;50.280;19.160;2023-08-30T11:32:42;97514.78;;;19.38;64.14
66857;BME280;53766;50.280;19.160;2023-08-30T11:35:13;97513.38;;;19.35;64.13
66857;BME280;53766;50.280;19.160;2023-08-30T11:37:40;97508.28;;;19.33;64.00
66857;BME280;53766;50.280;19.160;2023-08-30T11:40:11;97504.22;;;19.31;63.99
66857;BME280;53766;50.280;19.160;2023-08-30T11:42:38;97503.19;;;19.32;64.09
66857;BME280;53766;50.280;19.160;2023-08-30T11:45:07;97506.19;;;19.36;64.03
66857;BME280;53766;50.280;19.160;2023-08-30T11:47:35;97517.44;;;19.38;64.08
66857;BME280;53766;50.280;19.160;2023-08-30T11:50:03;97511.06;;;19.39;64.24
66857;BME280;53766;50.280;19.160;2023-08-30T11:52:32;97508.63;;;19.37;64.36
66857;BME280;53766;50.280;19.160;2023-08-30T11:55:00;97507.81;;;19.37;64.51
66857;BME280;53766;50.280;19.160;2023-08-30T11:57:28;97507.81;;;19.37;64.17
66857;BME280;53766;50.280;19.160;2023-08-30T11:59:55;97509.91;;;19.35;64.19
66857;BME280;53766;50.280;19.160;2023-08-30T12:02:23;97513.16;;;19.37;64.26
66857;BME280;53766;50.280;19.160;2023-08-30T12:04:51;97510.28;;;19.38;64.16
66857;BME280;53766;50.280;19.160;2023-08-30T12:07:22;97518.50;;;19.37;64.28
66857;BME280;53766;50.280;19.160;2023-08-30T12:09:51;97516.88;;;19.36;64.21
66857;BME280;53766;50.280;19.160;2023-08-30T12:12:18;97522.19;;;19.36;64.24
66857;BME280;53766;50.280;19.160;2023-08-30T12:14:54;97518.94;;;19.33;64.10
66857;BME280;53766;50.280;19.160;2023-08-30T12:17:23;97513.06;;;19.31;64.21
66857;BME280;53766;50.280;19.160;2023-08-30T12:19:57;97507.94;;;19.30;63.97
66857;BME280;53766;50.280;19.160;2023-08-30T12:22:40;97510.38;;;19.31;63.83
66857;BME280;53766;50.280;19.160;2023-08-30T12:25:22;97509.09;;;19.34;64.20
66857;BME280;53766;50.280;19.160;2023-08-30T12:27:53;97514.19;;;19.36;64.35
66857;BME280;53766;50.280;19.160;2023-08-30T12:30:21;97509.44;;;19.38;64.07
66857;BME280;53766;50.280;19.160;2023-08-30T12:32:48;97511.06;;;19.39;64.10
66857;BME280;53766;50.280;19.160;2023-08-30T12:35:16;97509.56;;;19.43;64.05
66857;BME280;53766;50.280;19.160;2023-08-30T12:37:44;97501.56;;;19.43;63.96
66857;BME280;53766;50.280;19.160;2023-08-30T12:40:11;97496.22;;;19.43;63.97
66857;BME280;53766;50.280;19.160;2023-08-30T12:42:39;97499.91;;;19.42;64.01
66857;BME280;53766;50.280;19.160;2023-08-30T12:45:07;97502.00;;;19.40;63.88
66857;BME280;53766;50.280;19.160;2023-08-30T12:47:35;97505.75;;;19.39;63.90
66857;BME280;53766;50.280;19.160;2023-08-30T12:50:04;97504.09;;;19.38;63.91
66857;BME280;53766;50.280;19.160;2023-08-30T12:52:31;97502.47;;;19.37;64.03
66857;BME280;53766;50.280;19.160;2023-08-30T12:54:59;97507.25;;;19.35;63.85
66857;BME280;53766;50.280;19.160;2023-08-30T12:57:26;97512.81;;;19.33;64.04
66857;BME280;53766;50.280;19.160;2023-08-30T12:59:54;97518.94;;;19.33;64.12
66857;BME280;53766;50.280;19.160;2023-08-30T13:02:22;97519.31;;;19.37;64.06
66857;BME280;53766;50.280;19.160;2023-08-30T13:04:50;97522.19;;;19.36;64.37